Share

Kaibito, AZ (86053)

Grand Canyon National Park (KGCN) Elev 6608 ft | 35.95 °N, 112.15 °W | Change Station

Current weather conditions updated 30 minutes ago

Overcast
Overcast
39 °F
Feels Like 39 °F
N
0
Wind Variable Wind from North
Sunrise 6:46 AM
Sunset 8:03 PM
Moon Waning Gibbous

Today is forecast to be Warmer than yesterday.

Pressure 29.96 in
Visibility 10.0 miles
Clouds Scattered Clouds 7000 ft
Overcast 9000 ft
Dew Point 38 °F
Humidity 96%
Rainfall 0.01 in
Snow Depth Not available.
UV 0 out of 16
Pollen 8.00 out of 12
Air Quality Not available.
Flu Activity Local Activity
METAR KGCN 191054Z AUTO 00000KT 10SM SCT070 OVC090 04/03 A3011 RMK AO2 SLP146 T00390033

More Conditions Fewer Conditions

Pressure 29.96 in
Visibility 10.0 miles
Clouds Scattered Clouds 7000 ft
Overcast 9000 ft
Dew Point 38 °F
Humidity 96%
Rainfall 0.01 in
Snow Depth Not available.
UV 0 out of 16
Pollen 8.00 out of 12
Air Quality Not available.
Flu Activity Local Activity
METAR KGCN 191054Z AUTO 00000KT 10SM SCT070 OVC090 04/03 A3011 RMK AO2 SLP146 T00390033

More Conditions Fewer Conditions

10-Day Weather Forecast

Almanac

Astronomy

Apr. 19, 2014 Rise Set
Actual Time 6:46 AM MDT 8:03 PM MDT
Civil Twilight 6:19 AM MDT 8:29 PM MDT
Nautical Twilight 5:47 AM MDT 9:02 PM MDT
Astronomical Twilight 5:13 AM MDT 9:35 PM MDT
Moon No Moon Rise 10:12 AM MDT
Length of Visible Light 14h 10m
Length of Day
13h 16m
Tomorrow will be 2m 9s longer.
Waning Gibbous, 80% of the Moon is Illuminated
Today
Waning Gibbous
Apr 22
Last Quarter
Apr 29
New
May 6
First Quarter
May 14
Full

Today's Extremes

State Highs State Lows

Community

  • Bleeding Hearts
    Bleeding Hearts
  • Sunset Silhouettes
    Sunset Silhouettes
  • FL sunset Perico Isle
    FL sunset Perico Isle
  • Cloudy spring view
    Cloudy spring view
  • Old barn
    Old barn

WunderPhotos

Upload Photos

1,702,682 photos uploaded!

WunderBlogs® & News

Nearby

Snow Depth

Station Depth Elevation
Snowslide Canyon 7 in 9730 ft
White Horse Lake 0 in 7180 ft
Mormon Mountain 0 in 7500 ft
Happy Jack 0 in 7630 ft
Baker Butte 0 in 7300 ft

Coastal Water Temperatures

Place Temperature
No Stations Reporting

Earthquake Activity

City Distance Mag. Time & Date
No recent earthquake activity has been reported nearby.
Minimum magnitude displayed is 2.5.

Nearby Weather Stations

There are no personal weather stations in this area.

What do you think?

We're not finished. Please let us know what you like, what you don't like, and what you are still missing.